Eastermar, Netherlands
Current Conditions -  °F | °C
As of 4:55 AM on Monday 24 Nov 2014 (Local Time) from EHLW Reporting Station
Overcast Overcast  
Wind Chill: 42°   Ceiling: 2900
Heat Index: 46°   Visibility: 6mi
Dew Point: 45°   Wind: 8mph
Humidity: 93%   Direction: 300°WNW
Pressure: 30.06"   Gusts: NA
Location:  53.17°N, 6.06°E
Report Text: EHLW 240355Z AUTO 30007KT 9999 FEW024 BKN029 OVC033 08/07 Q1018 REDZ BLU
Loading
Personal Weather Stations






























Interactive Weather Map New forecast layout! Learn more

10-Day Weather Forecast

Advertisements
Track Severe Weather on mobile